Withee, WI

7:34 PM CST on November 19, 2019 (GMT -0600)
Lublin | | Change Station
Active Advisory: Dense Fog Advisory

Elev 1290 ft 45.09 °N, 90.74 °W | Updated 3 seconds ago

Overcast
Overcast
32.4 °F
Feels Like 32 °F
N
2.2
Wind Variable Wind from SW
Gusts 0.0 mph

Today
High -- | Low -- °F
--% Chance of Precip.
Yesterday
High -- | Low -- °F
Precip. -- in
Pressure 29.88 in
Visibility 2.0 miles
Clouds Overcast 400 ft
Windchill 32 °F
Dew Point 32 °F
Humidity 99%
Rainfall 0.01 in
Snow Depth Not available.
7:05 AM 4:30 PM
Waning Gibbous, 48% visible
METAR KMDZ 200115Z AUTO 19003KT 2SM BR OVC004 00/M01 A2988 RMK AO2 T10051010
Pressure 29.88 in
Visibility 2.0 miles
Clouds Overcast 400 ft
Windchill 32 °F
Dew Point 32 °F
Humidity 99%
Rainfall 0.01 in
Snow Depth Not available.
7:05 AM 4:30 PM
Waning Gibbous, 48% visible
METAR KMDZ 200115Z AUTO 19003KT 2SM BR OVC004 00/M01 A2988 RMK AO2 T10051010

Get Your Daily Forecast Email!

Thanks for signing up!

Be on the lookout for a verification email in your inbox.

You'll start receiving severe weather alerts in your inbox..

×

10-Day Weather Forecast

Almanac

Astronomy

Nov. 19, 2019 Rise Set
Actual Time
Civil Twilight
Nautical Twilight
Astronomical Twilight
Moon
Length of Visible Light
Length of Day
Tomorrow will be .
, % of the Moon is Illuminated

Today's Extremes

State Highs State Lows

Community

WunderPhotos

Category 6

Welcome to Category 6. This is the collective home for Weather Underground's featured writeups by Dr. Jeff Masters (right), Bob Henson (left), Chris Burt, and other regular contributors.

Nearby

Air Quality

  Air Quality AQ Index Pollutant
Not available.

Snow Depth

Station Depth Elevation

Earthquake Activity

City Distance Mag. Time & Date
Minimum magnitude displayed is 2.5.

Coastal Water Temperatures

Place Temperature

Stations

Nearby Weather Stations

Station Location Temp. Windchill Dew Point Humidity Wind Precip. Elev Updated Type
                   

Watches & Warnings

Dense Fog Advisory
Issued: 6:15 PM CST Nov. 19, 2019 – National Weather Service

... Dense fog advisory in effect until 9 am CST Wednesday...

* what... visibility one quarter mile or less in dense fog.

* Where... much of central, north central, southwest and west
central Wisconsin.

* When... until 9 am CST Wednesday.

* Impacts... hazardous driving conditions due to low visibility. In
addition, there may be a few slick spots in north central
Wisconsin where temperatures remain near freezing.

Precautionary/preparedness actions...

If driving, slow down, use your headlights, and leave plenty of
distance ahead of you.